Nf67 Femarnbaelt II — OU3102 — position and weather

sailwx.info

Track history (hours):
 
Tides and Currents Weather Stations Pressure Air Temp Water Temp Dewpoint Dewpoint Depression Visibility Wind Speed Wind Dir Waves Ship Positions

Nf67 Femarnbaelt II

Last reported at 2015-Aug-27 07:33 UTC. Time now 2015-Aug-29 16:56 UTC.
Position N 57°36' E 009°57'.

Length 15 m.

Type: Fishing. MMSI: 219012459.

Date/timePositionNaut miles runAvg speedWind from/ knotsBaromVisibWave heightAir tempDewpointWater temp
2015-Aug-27 07:33N 57°36' E 009°57'0 0.0
2015-Aug-27 06:33N 57°36' E 009°57'  
2015-Aug-23 01:23N 57°54' E 009°49'0 0.4
2015-Aug-23 00:32N 57°54' E 009°48'0 0.3
2015-Aug-22 23:32N 57°54' E 009°48'0 0.2
2015-Aug-22 22:33N 57°54' E 009°48'1 1.0
2015-Aug-22 21:32N 57°54' E 009°49'1 0.6
2015-Aug-22 20:32N 57°54' E 009°48'1 0.9
2015-Aug-22 19:33N 57°54' E 009°46'19 2.4
2015-Aug-22 11:28N 57°36' E 009°57'0 0.0
2015-Aug-22 10:31N 57°36' E 009°57'0 0.0
2015-Aug-22 09:31N 57°36' E 009°57'0 0.0
2015-Aug-22 08:28N 57°36' E 009°57'0 0.0
2015-Aug-22 07:28N 57°36' E 009°57'0 0.0
2015-Aug-22 06:31N 57°36' E 009°57'0 0.0
2015-Aug-22 05:31N 57°36' E 009°57'0 0.0
2015-Aug-22 04:31N 57°36' E 009°57'0 0.0
2015-Aug-22 03:28N 57°36' E 009°57'0 0.0
2015-Aug-22 01:10N 57°36' E 009°57'0 0.0
2015-Aug-22 00:31N 57°36' E 009°57'0 0.0
2015-Aug-21 16:31N 57°36' E 009°57'0 0.0
2015-Aug-21 10:10N 57°36' E 009°57'0 0.0
2015-Aug-21 09:31N 57°36' E 009°57'0 0.0
2015-Aug-21 08:31N 57°36' E 009°57'0 0.0
2015-Aug-21 07:28N 57°36' E 009°57'0 0.0
2015-Aug-21 06:22N 57°36' E 009°57'0 0.0
2015-Aug-21 02:28N 57°36' E 009°57'0 0.0
2015-Aug-21 01:22N 57°36' E 009°57'0 0.0
2015-Aug-21 00:31N 57°36' E 009°57'0 0.0
2015-Aug-20 23:28N 57°36' E 009°57'0 0.0
2015-Aug-20 19:31N 57°36' E 009°57'0 0.0
2015-Aug-20 18:04N 57°36' E 009°57'0 0.0
2015-Aug-20 17:28N 57°36' E 009°57'  
Track history (hours):
 
Tides and Currents Weather Stations Pressure Air Temp Water Temp Dewpoint Dewpoint Depression Visibility Wind Speed Wind Dir Waves Ship Positions

Nf67 Femarnbaelt II

Last reported at 2015-Aug-27 07:33 UTC. Time now 2015-Aug-29 16:56 UTC.
Position N 57°36' E 009°57'.

Length 15 m.

Type: Fishing. MMSI: 219012459.

Date/timePositionNaut miles runAvg speedWind from/ knotsBaromVisibWave heightAir tempDewpointWater temp
2015-Aug-27 07:33N 57°36' E 009°57'0 0.0
2015-Aug-27 06:33N 57°36' E 009°57'  
2015-Aug-23 01:23N 57°54' E 009°49'0 0.4
2015-Aug-23 00:32N 57°54' E 009°48'0 0.3
2015-Aug-22 23:32N 57°54' E 009°48'0 0.2
2015-Aug-22 22:33N 57°54' E 009°48'1 1.0
2015-Aug-22 21:32N 57°54' E 009°49'1 0.6
2015-Aug-22 20:32N 57°54' E 009°48'1 0.9
2015-Aug-22 19:33N 57°54' E 009°46'19 2.4
2015-Aug-22 11:28N 57°36' E 009°57'0 0.0
2015-Aug-22 10:31N 57°36' E 009°57'0 0.0
2015-Aug-22 09:31N 57°36' E 009°57'0 0.0
2015-Aug-22 08:28N 57°36' E 009°57'0 0.0
2015-Aug-22 07:28N 57°36' E 009°57'0 0.0
2015-Aug-22 06:31N 57°36' E 009°57'0 0.0
2015-Aug-22 05:31N 57°36' E 009°57'0 0.0
2015-Aug-22 04:31N 57°36' E 009°57'0 0.0
2015-Aug-22 03:28N 57°36' E 009°57'0 0.0
2015-Aug-22 01:10N 57°36' E 009°57'0 0.0
2015-Aug-22 00:31N 57°36' E 009°57'0 0.0
2015-Aug-21 16:31N 57°36' E 009°57'0 0.0
2015-Aug-21 10:10N 57°36' E 009°57'0 0.0
2015-Aug-21 09:31N 57°36' E 009°57'0 0.0
2015-Aug-21 08:31N 57°36' E 009°57'0 0.0
2015-Aug-21 07:28N 57°36' E 009°57'0 0.0
2015-Aug-21 06:22N 57°36' E 009°57'0 0.0
2015-Aug-21 02:28N 57°36' E 009°57'0 0.0
2015-Aug-21 01:22N 57°36' E 009°57'0 0.0
2015-Aug-21 00:31N 57°36' E 009°57'0 0.0
2015-Aug-20 23:28N 57°36' E 009°57'0 0.0
2015-Aug-20 19:31N 57°36' E 009°57'0 0.0
2015-Aug-20 18:04N 57°36' E 009°57'0 0.0
2015-Aug-20 17:28N 57°36' E 009°57'  

Dump ship's entire track history